Time;durP1;ratioP1;P1;durP2;ratioP2;P2;SDS_P1;SDS_P2;PMS_P1;PMS_P2;Temp;Humidity;BMP_temperature;BMP_pressure;BME280_temperature;BME280_humidity;BME280_pressure;Samples;Min_cycle;Max_cycle;Signal;HPM_P1;HPM_P2
2023/06/21 00:00:12;;;;;;;;;;;;;;;28.33;100.00;97702.13;5082037;28;19940;-75
2023/06/21 00:02:40;;;;;;;;;;;;;;;28.39;100.00;97708.84;5084959;28;19924;-75
2023/06/21 00:05:07;;;;;;;;;;;;;;;28.27;100.00;97715.44;5084266;28;19924;-75
2023/06/21 00:07:33;;;;;;;;;;;;;;;28.39;100.00;97717.06;5081421;28;19931;-75
2023/06/21 00:10:00;;;;;;;;;;;;;;;28.42;100.00;97732.78;5081407;28;19924;-75
2023/06/21 00:12:26;;;;;;;;;;;;;;;28.37;100.00;97749.63;5084725;28;19928;-75
2023/06/21 00:14:53;;;;;;;;;;;;;;;28.34;100.00;97747.66;5084828;28;19924;-75
2023/06/21 00:17:19;;;;;;;;;;;;;;;28.25;100.00;97744.47;5064037;28;19924;-75
2023/06/21 00:19:48;;;;;;;;;;;;;;;28.37;100.00;97744.16;5082590;28;19929;-75
2023/06/21 00:22:21;;;;;;;;;;;;;;;28.37;100.00;97755.13;5084629;28;19933;-75
2023/06/21 00:24:48;;;;;;;;;;;;;;;28.38;100.00;97753.94;5085953;28;19930;-75
2023/06/21 00:27:14;;;;;;;;;;;;;;;28.32;100.00;97755.47;5084329;28;19925;-75
2023/06/21 00:29:40;;;;;;;;;;;;;;;28.38;99.98;97765.72;5084380;28;20152;-75
2023/06/21 00:32:07;;;;;;;;;;;;;;;28.37;100.00;97766.13;5067074;28;19991;-75
2023/06/21 00:34:34;;;;;;;;;;;;;;;28.38;99.11;97767.69;5084944;28;19992;-75
2023/06/21 00:37:03;;;;;;;;;;;;;;;28.25;98.71;97771.94;5084734;28;19924;-75
2023/06/21 00:39:29;;;;;;;;;;;;;;;28.34;98.74;97777.88;5073011;28;19925;-74
2023/06/21 00:41:56;;;;;;;;;;;;;;;28.22;99.36;97789.97;5054656;28;20493;-75
2023/06/21 00:44:22;;;;;;;;;;;;;;;28.23;98.59;97779.75;5072417;28;19995;-75
2023/06/21 00:46:50;;;;;;;;;;;;;;;28.19;98.61;97771.50;5072312;28;20000;-75
2023/06/21 00:49:16;;;;;;;;;;;;;;;28.20;98.23;97781.28;5072496;28;19929;-75
2023/06/21 00:51:44;;;;;;;;;;;;;;;28.23;98.37;97779.75;5084189;28;19996;-75
2023/06/21 00:54:16;;;;;;;;;;;;;;;28.16;98.89;97774.22;5082258;28;19935;-75
2023/06/21 00:56:42;;;;;;;;;;;;;;;28.05;99.29;97762.34;5069771;28;19920;-75
2023/06/21 00:59:09;;;;;;;;;;;;;;;28.09;99.52;97766.72;5072265;28;19988;-75
2023/06/21 01:01:37;;;;;;;;;;;;;;;28.12;98.84;97756.91;5069535;28;19912;-75
2023/06/21 01:04:04;;;;;;;;;;;;;;;28.10;98.83;97743.56;5086627;28;19920;-75
2023/06/21 01:06:34;;;;;;;;;;;;;;;28.10;98.57;97748.28;5084418;28;19924;-75
2023/06/21 01:09:04;;;;;;;;;;;;;;;28.12;98.47;97756.91;5084038;28;19951;-75
2023/06/21 01:11:37;;;;;;;;;;;;;;;28.13;98.56;97756.53;5079121;28;19987;-75
2023/06/21 01:14:11;;;;;;;;;;;;;;;28.10;98.43;97738.06;5080502;28;19924;-75
2023/06/21 01:16:39;;;;;;;;;;;;;;;28.08;98.40;97762.38;5083691;28;19925;-75
2023/06/21 01:19:06;;;;;;;;;;;;;;;28.08;98.07;97761.59;5083122;28;19925;-75
2023/06/21 01:21:33;;;;;;;;;;;;;;;28.09;98.49;97768.66;5083639;28;19925;-75
2023/06/21 01:24:06;;;;;;;;;;;;;;;28.05;98.64;97757.66;5062068;28;20016;-75
2023/06/21 01:26:47;;;;;;;;;;;;;;;28.03;98.53;97761.94;5071905;28;19931;-75
2023/06/21 01:29:17;;;;;;;;;;;;;;;28.07;98.42;97765.53;5054168;28;19957;-76
2023/06/21 01:31:45;;;;;;;;;;;;;;;28.02;98.77;97763.09;5053656;28;19931;-76
2023/06/21 01:34:12;;;;;;;;;;;;;;;27.99;98.39;97755.63;5061689;28;19975;-77
2023/06/21 01:36:39;;;;;;;;;;;;;;;28.02;98.45;97741.13;5071213;28;19925;-77
2023/06/21 01:39:08;;;;;;;;;;;;;;;28.01;98.72;97743.06;5071732;28;19925;-76
2023/06/21 01:41:35;;;;;;;;;;;;;;;28.02;98.65;97741.91;5083055;28;19992;-77
2023/06/21 01:44:01;;;;;;;;;;;;;;;28.03;98.83;97739.97;5082893;28;19924;-77
2023/06/21 01:46:29;;;;;;;;;;;;;;;28.04;98.48;97742.31;5070999;28;19925;-77
2023/06/21 01:48:56;;;;;;;;;;;;;;;28.04;98.88;97756.03;5071388;28;19988;-77
2023/06/21 01:51:23;;;;;;;;;;;;;;;28.02;98.89;97754.84;5064404;28;20561;-76
2023/06/21 01:53:50;;;;;;;;;;;;;;;27.97;99.39;97760.69;5061375;28;19964;-76
2023/06/21 01:56:17;;;;;;;;;;;;;;;27.98;99.30;97754.81;5071121;28;19964;-76
2023/06/21 01:58:45;;;;;;;;;;;;;;;27.86;98.81;97766.88;5076816;28;19924;-76
2023/06/21 02:01:12;;;;;;;;;;;;;;;27.89;99.52;97768.06;5063653;28;19936;-76
2023/06/21 02:03:42;;;;;;;;;;;;;;;27.87;100.00;97771.22;5079182;28;19925;-76
2023/06/21 02:06:09;;;;;;;;;;;;;;;27.91;100.00;97768.50;5080134;28;19992;-77
2023/06/21 02:08:36;;;;;;;;;;;;;;;27.85;100.00;97759.81;5082507;28;19928;-76
2023/06/21 02:11:03;;;;;;;;;;;;;;;27.87;100.00;97754.75;5082437;28;20329;-76
2023/06/21 02:13:29;;;;;;;;;;;;;;;27.85;100.00;97759.81;5061046;28;19960;-75
2023/06/21 02:15:56;;;;;;;;;;;;;;;27.88;100.00;97761.78;5079093;28;20465;-76
2023/06/21 02:18:22;;;;;;;;;;;;;;;27.87;100.00;97762.97;5063639;28;19925;-76
2023/06/21 02:20:50;;;;;;;;;;;;;;;27.84;100.00;97762.94;5085442;28;19924;-77
2023/06/21 02:23:17;;;;;;;;;;;;;;;27.85;100.00;97757.06;5080422;28;19928;-77
2023/06/21 02:25:43;;;;;;;;;;;;;;;27.83;100.00;97762.16;5061190;28;19925;-77
2023/06/21 02:28:09;;;;;;;;;;;;;;;27.76;100.00;97761.31;5079788;28;19932;-77
2023/06/21 02:30:36;;;;;;;;;;;;;;;27.80;100.00;97765.66;5082615;28;19987;-77
2023/06/21 02:33:02;;;;;;;;;;;;;;;27.76;100.00;97778.56;5064630;28;19967;-76
2023/06/21 02:35:28;;;;;;;;;;;;;;;27.75;100.00;97767.97;5070294;28;20405;-76
2023/06/21 02:37:56;;;;;;;;;;;;;;;27.74;100.00;97766.38;5070586;28;20004;-75
2023/06/21 02:40:23;;;;;;;;;;;;;;;27.64;100.00;97772.56;5052636;28;19932;-75
2023/06/21 02:42:49;;;;;;;;;;;;;;;27.55;100.00;97770.13;5070558;28;19932;-75
2023/06/21 02:45:16;;;;;;;;;;;;;;;27.62;100.00;97781.19;5070324;28;19963;-75
2023/06/21 02:47:42;;;;;;;;;;;;;;;27.60;100.00;97774.50;5070213;28;19925;-75
2023/06/21 02:50:09;;;;;;;;;;;;;;;27.63;100.00;97766.31;5074555;28;19999;-75
2023/06/21 02:52:35;;;;;;;;;;;;;;;27.67;100.00;97767.09;5080933;28;20330;-74
2023/06/21 02:55:04;;;;;;;;;;;;;;;27.68;100.00;97765.94;5081792;28;19964;-75
2023/06/21 02:57:30;;;;;;;;;;;;;;;27.65;100.00;97757.69;5070541;28;19999;-75
2023/06/21 02:59:59;;;;;;;;;;;;;;;27.64;100.00;97754.16;5072177;28;20035;-74
2023/06/21 03:02:32;;;;;;;;;;;;;;;27.63;100.00;97752.59;5059086;28;19942;-74
2023/06/21 03:04:59;;;;;;;;;;;;;;;27.65;100.00;97754.94;5075958;28;19985;-75
2023/06/21 03:07:25;;;;;;;;;;;;;;;27.57;100.00;97754.09;5070231;28;19986;-75
2023/06/21 03:09:51;;;;;;;;;;;;;;;27.58;100.00;97744.69;5070099;28;19947;-75
2023/06/21 03:12:19;;;;;;;;;;;;;;;27.58;100.00;97754.88;5070089;28;19928;-75
2023/06/21 03:14:45;;;;;;;;;;;;;;;27.54;100.00;97754.84;5070065;28;19931;-75
2023/06/21 03:17:12;;;;;;;;;;;;;;;27.56;100.00;97755.25;5069989;28;20015;-75
2023/06/21 03:19:38;;;;;;;;;;;;;;;27.55;100.00;97764.66;5070179;28;19921;-76
2023/06/21 03:22:04;;;;;;;;;;;;;;;27.42;100.00;97768.03;5064888;28;19935;-75
2023/06/21 03:24:32;;;;;;;;;;;;;;;27.49;100.00;97773.59;5065513;28;19925;-75
2023/06/21 03:26:58;;;;;;;;;;;;;;;27.49;100.00;97779.88;5082847;28;19921;-75
2023/06/21 03:29:26;;;;;;;;;;;;;;;27.49;100.00;97784.56;5079042;28;19921;-75
2023/06/21 03:31:52;;;;;;;;;;;;;;;27.33;100.00;97777.31;5080023;28;19952;-75
2023/06/21 03:34:19;;;;;;;;;;;;;;;27.32;100.00;97791.44;5084129;28;19935;-75
2023/06/21 03:36:45;;;;;;;;;;;;;;;27.34;100.00;97780.88;5085387;28;19935;-75
2023/06/21 03:39:11;;;;;;;;;;;;;;;27.38;100.00;97784.44;5085060;28;19970;-75
2023/06/21 03:41:38;;;;;;;;;;;;;;;27.39;100.00;97785.22;5082790;28;19987;-75
2023/06/21 03:44:04;;;;;;;;;;;;;;;27.35;100.00;97779.69;5083372;28;19931;-75
2023/06/21 03:46:32;;;;;;;;;;;;;;;27.40;100.00;97795.81;5087925;28;19948;-74
2023/06/21 03:48:58;;;;;;;;;;;;;;;27.40;100.00;97793.06;5088052;28;19951;-74
2023/06/21 03:51:25;;;;;;;;;;;;;;;27.39;100.00;97791.47;5088594;28;19925;-75
2023/06/21 03:53:51;;;;;;;;;;;;;;;27.40;100.00;97790.31;5064441;28;19956;-75
2023/06/21 03:56:18;;;;;;;;;;;;;;;27.39;100.00;97794.22;5065797;28;20008;-75
2023/06/21 03:58:44;;;;;;;;;;;;;;;27.41;100.00;97805.63;5085079;28;19924;-75
2023/06/21 04:01:11;;;;;;;;;;;;;;;27.39;100.00;97812.66;5084310;28;19925;-75
2023/06/21 04:03:38;;;;;;;;;;;;;;;27.33;100.00;97804.75;5063693;28;20032;-74
2023/06/21 04:06:05;;;;;;;;;;;;;;;27.36;100.00;97803.19;5081553;28;19924;-74
2023/06/21 04:08:31;;;;;;;;;;;;;;;27.30;100.00;97808.25;5085012;28;19924;-74
2023/06/21 04:10:57;;;;;;;;;;;;;;;27.31;100.00;97809.03;5084959;28;19928;-74
2023/06/21 04:13:24;;;;;;;;;;;;;;;27.32;100.00;97816.09;5063906;28;19924;-74
2023/06/21 04:15:51;;;;;;;;;;;;;;;27.29;100.00;97819.59;5063569;28;19996;-75
2023/06/21 04:18:17;;;;;;;;;;;;;;;27.33;100.00;97818.47;5083481;28;19935;-75
2023/06/21 04:20:49;;;;;;;;;;;;;;;27.33;100.00;97815.72;5070192;28;19963;-75
2023/06/21 04:23:15;;;;;;;;;;;;;;;27.09;100.00;97834.63;5082768;28;19947;-75
2023/06/21 04:25:41;;;;;;;;;;;;;;;27.03;100.00;97836.09;5081102;28;19937;-74
2023/06/21 04:28:10;;;;;;;;;;;;;;;27.10;100.00;97817.81;5081715;28;19974;-74
2023/06/21 04:30:36;;;;;;;;;;;;;;;27.17;100.00;97823.34;5066329;28;19925;-74
2023/06/21 04:33:02;;;;;;;;;;;;;;;27.25;100.00;97825.03;5066521;28;19987;-74
2023/06/21 04:35:29;;;;;;;;;;;;;;;27.25;100.00;97827.78;5072454;28;19925;-74
2023/06/21 04:37:56;;;;;;;;;;;;;;;27.21;100.00;97826.16;5072666;28;19988;-74
2023/06/21 04:40:23;;;;;;;;;;;;;;;27.21;100.00;97829.69;5072511;28;20071;-75
2023/06/21 04:42:54;;;;;;;;;;;;;;;27.28;100.00;97828.97;5072026;28;19988;-75
2023/06/21 04:45:21;;;;;;;;;;;;;;;27.31;100.00;97834.50;5072255;28;19976;-75
2023/06/21 04:47:48;;;;;;;;;;;;;;;27.35;100.00;97837.28;5071647;28;19928;-76
2023/06/21 04:50:15;;;;;;;;;;;;;;;27.33;100.00;97834.13;5080717;28;19989;-75
2023/06/21 04:52:41;;;;;;;;;;;;;;;27.04;100.00;97849.44;5084002;28;19924;-75
2023/06/21 04:55:12;;;;;;;;;;;;;;;26.90;100.00;97849.25;5083304;28;19972;-75
2023/06/21 04:57:39;;;;;;;;;;;;;;;26.55;100.00;97857.75;5080314;28;20456;-75
2023/06/21 05:00:07;;;;;;;;;;;;;;;26.61;100.00;97864.50;5080669;28;19925;-76
2023/06/21 05:02:33;;;;;;;;;;;;;;;26.77;100.00;97865.09;5082410;28;19924;-76
2023/06/21 05:05:00;;;;;;;;;;;;;;;26.35;100.00;97875.41;5082497;28;19924;-75
2023/06/21 05:07:26;;;;;;;;;;;;;;;26.54;100.00;97872.59;5062652;28;19975;-76
2023/06/21 05:09:52;;;;;;;;;;;;;;;26.70;100.00;97881.44;5080198;28;19925;-76
2023/06/21 05:12:20;;;;;;;;;;;;;;;26.75;100.00;97889.34;5082192;28;19971;-74
2023/06/21 05:14:47;;;;;;;;;;;;;;;26.84;100.00;97886.34;5083089;28;19952;-74
2023/06/21 05:17:15;;;;;;;;;;;;;;;26.96;100.00;97888.09;5082030;28;19924;-74
2023/06/21 05:19:42;;;;;;;;;;;;;;;27.02;100.00;97892.88;5080642;28;19996;-74
2023/06/21 05:22:08;;;;;;;;;;;;;;;27.08;100.00;97885.13;5065390;28;19963;-74
2023/06/21 05:24:37;;;;;;;;;;;;;;;26.95;100.00;97881.84;5065568;28;19924;-74
2023/06/21 05:27:03;;;;;;;;;;;;;;;26.96;100.00;97885.34;5083235;28;19936;-76
2023/06/21 05:29:31;;;;;;;;;;;;;;;27.01;100.00;97890.53;5079896;28;19925;-75
2023/06/21 05:31:57;;;;;;;;;;;;;;;27.16;100.00;97893.06;5079797;28;19925;-75
2023/06/21 05:34:26;;;;;;;;;;;;;;;27.39;100.00;97895.69;5082470;28;19983;-75
2023/06/21 05:36:52;;;;;;;;;;;;;;;27.61;100.00;97899.50;5083195;28;19987;-75
2023/06/21 05:39:18;;;;;;;;;;;;;;;27.60;100.00;97906.97;5081151;28;19971;-75
2023/06/21 05:41:45;;;;;;;;;;;;;;;27.51;100.00;97911.19;5062495;28;19947;-75
2023/06/21 05:44:11;;;;;;;;;;;;;;;27.71;100.00;97912.56;5066717;28;19925;-75
2023/06/21 05:46:39;;;;;;;;;;;;;;;27.76;100.00;97924.00;5088891;28;19946;-75
2023/06/21 05:49:05;;;;;;;;;;;;;;;27.95;100.00;97927.72;5068555;28;19959;-75
2023/06/21 05:51:32;;;;;;;;;;;;;;;27.89;100.00;97922.56;5083237;28;19947;-75
2023/06/21 05:53:58;;;;;;;;;;;;;;;27.99;100.00;97928.56;5085652;28;19947;-75
2023/06/21 05:56:26;;;;;;;;;;;;;;;28.16;100.00;97931.50;5079849;28;19924;-75
2023/06/21 05:58:53;;;;;;;;;;;;;;;27.96;100.00;97934.78;5079337;28;19969;-75
2023/06/21 06:01:19;;;;;;;;;;;;;;;28.15;100.00;97942.88;5081672;28;19944;-75
2023/06/21 06:03:47;;;;;;;;;;;;;;;28.23;100.00;97937.06;5082796;28;20019;-75
2023/06/21 06:06:14;;;;;;;;;;;;;;;28.03;100.00;97932.13;5080000;28;19924;-76
2023/06/21 06:08:40;;;;;;;;;;;;;;;27.97;100.00;97934.44;5061403;28;20474;-75
2023/06/21 06:11:07;;;;;;;;;;;;;;;27.97;100.00;97934.44;5061833;28;19935;-75
2023/06/21 06:13:33;;;;;;;;;;;;;;;28.14;100.00;97938.53;5082640;28;19959;-75
2023/06/21 06:16:00;;;;;;;;;;;;;;;28.24;100.00;97937.88;5084370;28;19924;-76
2023/06/21 06:18:27;;;;;;;;;;;;;;;28.22;100.00;97953.94;5078654;28;19967;-75
2023/06/21 06:20:55;;;;;;;;;;;;;;;28.06;100.00;97956.91;5086392;28;19925;-76
2023/06/21 06:23:21;;;;;;;;;;;;;;;28.14;100.00;97974.25;5080307;28;19924;-76
2023/06/21 06:25:48;;;;;;;;;;;;;;;28.05;100.00;97971.81;5079408;28;19991;-76
2023/06/21 06:28:14;;;;;;;;;;;;;;;28.03;100.00;97982.34;5062672;28;19955;-74
2023/06/21 06:30:41;;;;;;;;;;;;;;;28.10;100.00;97978.91;5082379;28;19936;-74
2023/06/21 06:33:07;;;;;;;;;;;;;;;28.19;100.00;97982.16;5081805;28;19932;-74
2023/06/21 06:35:33;;;;;;;;;;;;;;;28.18;100.00;97972.31;5078797;28;19960;-74
2023/06/21 06:38:01;;;;;;;;;;;;;;;28.20;100.00;97961.75;5078917;28;19928;-75
2023/06/21 06:40:28;;;;;;;;;;;;;;;28.17;100.00;97957.81;5082410;28;19947;-75
2023/06/21 06:42:54;;;;;;;;;;;;;;;28.09;100.00;97952.63;5082422;28;20265;-75
2023/06/21 06:45:20;;;;;;;;;;;;;;;28.17;100.00;97960.53;5080022;28;19924;-75
2023/06/21 06:47:47;;;;;;;;;;;;;;;28.25;100.00;97975.16;5079102;28;19925;-75
2023/06/21 06:50:13;;;;;;;;;;;;;;;28.09;100.00;97996.56;5083737;28;19970;-75
2023/06/21 06:52:40;;;;;;;;;;;;;;;28.11;100.00;97999.69;5082411;28;19963;-75
2023/06/21 06:55:08;;;;;;;;;;;;;;;28.19;100.00;97995.88;5081802;28;19924;-75
2023/06/21 06:57:36;;;;;;;;;;;;;;;28.04;100.00;98007.84;5082318;28;19932;-75
2023/06/21 07:00:04;;;;;;;;;;;;;;;27.84;100.00;98016.25;5082308;28;19925;-75
2023/06/21 07:02:30;;;;;;;;;;;;;;;27.82;100.00;98028.75;5070335;28;19947;-75
2023/06/21 07:04:57;;;;;;;;;;;;;;;27.76;100.00;98022.78;5070236;28;19936;-75
2023/06/21 07:07:23;;;;;;;;;;;;;;;27.61;100.00;98017.50;5074034;28;19975;-75
2023/06/21 07:09:50;;;;;;;;;;;;;;;27.51;100.00;98007.97;5074263;28;19940;-75
2023/06/21 07:12:17;;;;;;;;;;;;;;;27.69;100.00;98009.00;5074114;28;19963;-75
2023/06/21 07:14:44;;;;;;;;;;;;;;;27.86;100.00;98002.94;5073954;28;19960;-75
2023/06/21 07:17:10;;;;;;;;;;;;;;;27.96;100.00;97992.44;5056578;28;19987;-75
2023/06/21 07:19:37;;;;;;;;;;;;;;;28.03;100.00;98014.50;5075558;28;19925;-75
2023/06/21 07:22:03;;;;;;;;;;;;;;;27.93;100.00;98004.19;5082066;28;19924;-75
2023/06/21 07:24:30;;;;;;;;;;;;;;;28.09;100.00;98004.78;5073856;28;19928;-75
2023/06/21 07:26:56;;;;;;;;;;;;;;;28.28;100.00;98004.59;5073980;28;19960;-75
2023/06/21 07:29:24;;;;;;;;;;;;;;;28.40;100.00;98007.09;5073779;28;20468;-75
2023/06/21 07:31:50;;;;;;;;;;;;;;;28.43;100.00;98009.06;5055965;28;20039;-75
2023/06/21 07:34:16;;;;;;;;;;;;;;;28.34;100.00;98014.88;5073509;28;19928;-76
2023/06/21 07:36:43;;;;;;;;;;;;;;;28.49;100.00;98015.00;5073522;28;19925;-75
2023/06/21 07:39:09;;;;;;;;;;;;;;;28.55;100.00;98022.53;5073815;28;19974;-75
2023/06/21 07:41:36;;;;;;;;;;;;;;;28.48;100.00;98027.94;5073662;28;19925;-75
2023/06/21 07:44:02;;;;;;;;;;;;;;;28.31;100.00;98028.56;5073634;28;19925;-75
2023/06/21 07:46:30;;;;;;;;;;;;;;;28.25;100.00;98013.59;5073699;28;19987;-75
2023/06/21 07:48:56;;;;;;;;;;;;;;;28.04;100.00;98013.34;5080927;28;19988;-75
2023/06/21 07:51:22;;;;;;;;;;;;;;;28.08;100.00;98014.97;5086172;28;19971;-75
2023/06/21 07:53:49;;;;;;;;;;;;;;;28.48;100.00;98000.47;5081793;28;20051;-75
2023/06/21 07:56:16;;;;;;;;;;;;;;;28.77;100.00;98002.34;5083239;28;19931;-75
2023/06/21 07:58:43;;;;;;;;;;;;;;;28.45;100.00;98006.72;5085033;28;19992;-75
2023/06/21 08:01:09;;;;;;;;;;;;;;;28.63;100.00;98002.19;5084242;28;19924;-75
2023/06/21 08:03:37;;;;;;;;;;;;;;;28.56;100.00;98004.88;5081561;28;19979;-75
2023/06/21 08:06:03;;;;;;;;;;;;;;;28.86;100.00;97999.28;5081283;28;19940;-75
2023/06/21 08:08:29;;;;;;;;;;;;;;;29.13;100.00;97991.59;5063345;28;19944;-75
2023/06/21 08:10:56;;;;;;;;;;;;;;;29.03;100.00;97984.09;5081294;28;19980;-75
2023/06/21 08:13:23;;;;;;;;;;;;;;;28.59;100.00;97984.09;5083930;28;20000;-75
2023/06/21 08:15:49;;;;;;;;;;;;;;;28.48;100.00;97986.75;5084830;28;19928;-75
2023/06/21 08:18:16;;;;;;;;;;;;;;;28.70;100.00;97982.25;5082044;28;20362;-75
2023/06/21 08:20:43;;;;;;;;;;;;;;;29.10;100.00;97981.38;5086278;28;19925;-75
2023/06/21 08:23:10;;;;;;;;;;;;;;;29.32;99.33;97972.91;5083665;28;19951;-74
2023/06/21 08:25:36;;;;;;;;;;;;;;;29.50;97.42;97975.75;5080974;28;19981;-75
2023/06/21 08:28:03;;;;;;;;;;;;;;;29.49;97.20;97962.38;5063072;28;19925;-75
2023/06/21 08:30:30;;;;;;;;;;;;;;;29.53;95.58;97960.41;5072331;28;19964;-75
2023/06/21 08:32:56;;;;;;;;;;;;;;;29.51;97.12;97958.06;5072562;28;19955;-75
2023/06/21 08:35:22;;;;;;;;;;;;;;;29.81;94.38;97963.28;5072431;28;19931;-75
2023/06/21 08:37:57;;;;;;;;;;;;;;;29.71;92.00;97961.31;5072308;28;19964;-76
2023/06/21 08:40:25;;;;;;;;;;;;;;;29.22;93.41;97961.81;5072392;28;19976;-76
2023/06/21 08:42:51;;;;;;;;;;;;;;;29.03;92.31;97964.84;5072170;28;19928;-75
2023/06/21 08:45:18;;;;;;;;;;;;;;;29.25;95.30;97959.09;5072346;28;19925;-75
2023/06/21 08:47:46;;;;;;;;;;;;;;;29.55;92.09;97958.09;5072277;28;19937;-75
2023/06/21 08:50:13;;;;;;;;;;;;;;;29.52;91.72;97948.66;5058938;28;19931;-75
2023/06/21 08:52:42;;;;;;;;;;;;;;;29.94;90.93;97964.56;5083983;28;19924;-75
2023/06/21 08:55:11;;;;;;;;;;;;;;;30.15;88.47;97948.06;5083086;28;19986;-75
2023/06/21 08:57:39;;;;;;;;;;;;;;;30.30;87.29;97960.69;5080552;28;19924;-75
2023/06/21 09:00:10;;;;;;;;;;;;;;;30.39;86.34;97958.38;5080720;28;19935;-75
2023/06/21 09:02:41;;;;;;;;;;;;;;;30.04;86.29;97968.53;5065881;28;19987;-75
2023/06/21 09:05:10;;;;;;;;;;;;;;;30.09;88.52;97968.13;5083423;28;19925;-75
2023/06/21 09:07:37;;;;;;;;;;;;;;;30.39;87.43;97963.88;5080422;28;19997;-76
2023/06/21 09:10:04;;;;;;;;;;;;;;;30.54;85.21;97964.69;5080436;28;19925;-75
2023/06/21 09:12:34;;;;;;;;;;;;;;;30.47;87.26;97964.69;5073202;28;20344;-75
2023/06/21 09:15:00;;;;;;;;;;;;;;;30.36;85.68;97961.88;5071296;28;19925;-75
2023/06/21 09:17:27;;;;;;;;;;;;;;;29.96;86.79;97965.72;5072068;28;19978;-75
2023/06/21 09:19:54;;;;;;;;;;;;;;;30.22;86.02;97972.09;5064891;28;19931;-76
2023/06/21 09:22:24;;;;;;;;;;;;;;;30.50;82.98;97970.22;5083470;28;19925;-76
2023/06/21 09:24:51;;;;;;;;;;;;;;;30.53;81.53;97979.66;5083329;28;19925;-75
2023/06/21 09:27:17;;;;;;;;;;;;;;;30.78;79.05;97982.41;5063534;28;19924;-75
2023/06/21 09:29:45;;;;;;;;;;;;;;;30.79;78.55;97976.53;5080155;28;19951;-75
2023/06/21 09:32:11;;;;;;;;;;;;;;;30.88;76.86;97976.91;5063533;28;19959;-75
2023/06/21 09:34:38;;;;;;;;;;;;;;;31.02;75.95;97976.91;5083374;28;20386;-75
2023/06/21 09:37:05;;;;;;;;;;;;;;;31.08;75.14;97982.03;5083164;28;19963;-76
2023/06/21 09:39:31;;;;;;;;;;;;;;;31.08;75.10;97987.53;5062145;28;19924;-76
2023/06/21 09:41:58;;;;;;;;;;;;;;;30.95;74.78;97990.72;5079856;28;19952;-76
2023/06/21 09:44:24;;;;;;;;;;;;;;;31.11;73.62;97993.06;5082512;28;19954;-75
2023/06/21 09:46:57;;;;;;;;;;;;;;;30.97;70.13;97982.84;5083180;28;20011;-74
2023/06/21 09:49:26;;;;;;;;;;;;;;;30.78;68.10;97997.00;5080077;28;19933;-76
2023/06/21 09:51:52;;;;;;;;;;;;;;;30.57;68.31;97990.69;5083045;28;19997;-76
2023/06/21 09:54:19;;;;;;;;;;;;;;;30.69;72.27;97988.34;5063756;28;19924;-76
2023/06/21 09:56:45;;;;;;;;;;;;;;;30.69;68.15;97988.34;5082685;28;19929;-76
2023/06/21 09:59:15;;;;;;;;;;;;;;;30.73;68.85;97983.59;5081703;28;19998;-76
2023/06/21 10:01:44;;;;;;;;;;;;;;;30.99;67.99;97974.94;5079313;28;19991;-75
2023/06/21 10:04:13;;;;;;;;;;;;;;;31.00;63.86;97982.06;5080226;28;19924;-76
2023/06/21 10:06:47;;;;;;;;;;;;;;;30.97;62.90;97977.34;5064738;28;19975;-76
2023/06/21 10:09:13;;;;;;;;;;;;;;;30.91;64.80;97972.56;5063567;28;19970;-75
2023/06/21 10:11:40;;;;;;;;;;;;;;;31.07;62.60;97966.69;5061021;28;19956;-76
2023/06/21 10:14:06;;;;;;;;;;;;;;;30.90;60.60;97966.25;5079246;28;19931;-76
2023/06/21 10:16:33;;;;;;;;;;;;;;;30.83;60.60;97966.25;5082372;28;19964;-75
2023/06/21 10:18:59;;;;;;;;;;;;;;;30.89;62.21;97961.13;5064596;28;19924;-76
2023/06/21 10:21:28;;;;;;;;;;;;;;;30.93;61.19;97956.41;5083163;28;19984;-76
2023/06/21 10:23:55;;;;;;;;;;;;;;;30.78;60.50;97949.34;5079030;28;19984;-76
2023/06/21 10:26:24;;;;;;;;;;;;;;;30.77;60.37;97951.31;5081439;28;19992;-76
2023/06/21 10:28:54;;;;;;;;;;;;;;;30.93;59.87;97959.97;5082395;28;19989;-76
2023/06/21 10:31:22;;;;;;;;;;;;;;;30.88;61.35;97962.34;5080046;28;19988;-76
2023/06/21 10:33:50;;;;;;;;;;;;;;;31.04;62.40;97963.50;5061137;28;19936;-76
2023/06/21 10:36:18;;;;;;;;;;;;;;;31.25;62.35;97953.63;5062402;28;20398;-76
2023/06/21 10:38:47;;;;;;;;;;;;;;;31.49;61.26;97972.91;5082393;28;19988;-76
2023/06/21 10:41:15;;;;;;;;;;;;;;;31.63;60.80;97979.56;5062370;28;19956;-76
2023/06/21 10:43:41;;;;;;;;;;;;;;;31.76;60.27;97984.25;5078770;28;19925;-76
2023/06/21 10:46:09;;;;;;;;;;;;;;;31.59;60.28;97990.63;5061322;28;19925;-76
2023/06/21 10:48:36;;;;;;;;;;;;;;;31.66;59.26;97993.34;5082098;28;19952;-76
2023/06/21 10:51:04;;;;;;;;;;;;;;;31.66;59.40;98004.38;5085833;28;19982;-76
2023/06/21 10:53:32;;;;;;;;;;;;;;;31.63;60.24;97999.66;5069294;28;20402;-76
2023/06/21 10:56:01;;;;;;;;;;;;;;;31.76;58.96;98008.28;5052691;28;19925;-76
2023/06/21 10:58:28;;;;;;;;;;;;;;;31.79;60.17;98018.53;5070560;28;19959;-76
2023/06/21 11:00:55;;;;;;;;;;;;;;;31.64;60.85;98030.81;5070629;28;19951;-76
2023/06/21 11:03:25;;;;;;;;;;;;;;;31.66;61.07;98064.38;5070219;28;19924;-75
2023/06/21 11:05:53;;;;;;;;;;;;;;;31.66;60.19;98078.19;5070233;28;19925;-75
2023/06/21 11:08:30;;;;;;;;;;;;;;;31.51;60.24;98077.38;5070020;28;19984;-76
2023/06/21 11:10:57;;;;;;;;;;;;;;;31.42;60.71;98086.06;5070059;28;19925;-76
2023/06/21 11:13:35;;;;;;;;;;;;;;;31.28;63.96;98151.50;5069954;28;19928;-75
2023/06/21 11:16:09;;;;;;;;;;;;;;;31.17;74.73;98261.06;5069969;28;19931;-74
2023/06/21 11:18:35;;;;;;;;;;;;;;;30.23;92.04;98279.50;5072911;28;19966;-74
2023/06/21 11:21:05;;;;;;;;;;;;;;;29.68;94.69;98275.88;5067342;28;19983;-73
2023/06/21 11:23:32;;;;;;;;;;;;;;;29.60;99.51;98269.50;5078183;28;19935;-73
2023/06/21 11:26:13;;;;;;;;;;;;;;;29.93;97.24;98243.84;5078006;28;19925;-73
2023/06/21 11:28:44;;;;;;;;;;;;;;;29.97;97.08;98236.41;5060063;28;19925;-73
2023/06/21 11:31:13;;;;;;;;;;;;;;;29.66;97.51;98215.69;5078881;28;19929;-73
2023/06/21 11:33:50;;;;;;;;;;;;;;;29.70;96.62;98207.47;5081576;28;19931;-73
2023/06/21 11:36:20;;;;;;;;;;;;;;;29.78;96.06;98195.31;5079660;28;19924;-73
2023/06/21 11:38:51;;;;;;;;;;;;;;;29.46;93.90;98176.59;5077895;28;19996;-74
2023/06/21 11:41:41;;;;;;;;;;;;;;;29.54;98.41;98152.69;5079887;28;19929;-73
2023/06/21 11:44:11;;;;;;;;;;;;;;;29.68;98.04;98158.28;5070245;28;19931;-73
2023/06/21 11:46:39;;;;;;;;;;;;;;;29.79;95.57;98152.88;5078012;28;19989;-73
2023/06/21 11:49:05;;;;;;;;;;;;;;;29.78;91.89;98143.00;5078042;28;19925;-74
2023/06/21 11:51:32;;;;;;;;;;;;;;;29.30;92.94;98128.53;5085845;28;19935;-74
2023/06/21 11:53:59;;;;;;;;;;;;;;;28.92;94.16;98143.47;5080851;28;20020;-73
2023/06/21 11:56:29;;;;;;;;;;;;;;;28.46;96.36;98131.16;5066463;28;19946;-73
2023/06/21 11:58:55;;;;;;;;;;;;;;;28.16;100.00;98140.19;5084840;28;19964;-74
2023/06/21 12:01:23;;;;;;;;;;;;;;;28.41;98.61;98126.78;5064522;28;19924;-73
2023/06/21 12:03:56;;;;;;;;;;;;;;;28.39;100.00;98124.41;5081436;28;19992;-75
2023/06/21 12:06:22;;;;;;;;;;;;;;;28.62;98.83;98110.53;5067272;28;19933;-74
2023/06/21 12:08:49;;;;;;;;;;;;;;;28.92;95.73;98111.28;5085956;28;19931;-75
2023/06/21 12:11:18;;;;;;;;;;;;;;;29.16;95.61;98118.16;5083486;28;19924;-75
2023/06/21 12:13:44;;;;;;;;;;;;;;;29.21;95.35;98115.06;5081417;28;19963;-75
2023/06/21 12:16:11;;;;;;;;;;;;;;;29.26;96.10;98124.94;5064162;28;19935;-76
2023/06/21 12:18:38;;;;;;;;;;;;;;;29.28;96.79;98119.84;5084869;28;19989;-77
2023/06/21 12:21:06;;;;;;;;;;;;;;;29.30;96.88;98117.53;5070068;28;19924;-76
2023/06/21 12:23:33;;;;;;;;;;;;;;;29.29;96.83;98124.19;5081215;28;20278;-75
2023/06/21 12:26:00;;;;;;;;;;;;;;;29.26;98.36;98127.69;5081445;28;20020;-76
2023/06/21 12:28:27;;;;;;;;;;;;;;;29.22;99.00;98132.34;5066658;28;19963;-77
2023/06/21 12:30:56;;;;;;;;;;;;;;;29.24;99.54;98139.09;5084832;28;20342;-76
2023/06/21 12:33:23;;;;;;;;;;;;;;;29.17;98.45;98143.69;5082133;28;19992;-76
2023/06/21 12:35:51;;;;;;;;;;;;;;;29.16;98.83;98136.59;5080880;28;19925;-76
2023/06/21 12:38:19;;;;;;;;;;;;;;;28.76;100.00;98145.66;5082939;28;19925;-76
2023/06/21 12:40:56;;;;;;;;;;;;;;;27.77;100.00;98147.88;5066779;28;19996;-77